Dardo Tranquillante
| Nome | Dardo Tranquillante |
|---|---|
| Predefinito | Sleeper Dart |
| Tipo | Artefatto |
| Descrizione | Quando il Dardo Tranquillante entra nel campo di battaglia, pesca una carta.
|
| Gusto | "Ora dormi, bestione." —Kelsien, la Piaga |
| Artista | Sidharth Chaturvedi |
| Espansione | Gettoni Doppi Maestri #240 |
| Carta da parati | |
| Immagine |
Di Dardo Tranquillante
Dardo Tranquillante, Artefatto, progettato da Sidharth Chaturvedi rilasciato per la prima volta maggio 2020 in redazione Ikoria: Lair of Behemoths ed è stato stampato esattamente in 2 forme diverse. Attualmente viene venduto al prezzo più basso di € 0,01.
Dardo del Dormiente può essere utile nei mazzi di controllo che cercano di pescare carte e disturbare le creature degli avversari. Anche se fornisce un vantaggio di carte e blocca temporaneamente le creature, ci sono potenzialmente opzioni migliori come Ago di Pithing per un'utilità più ampia o Totem Maledetto per una soppressione più permanente delle creature. Se il Dardo del Dormiente viene giocato dipende dalla strategia specifica e dal meta del mazzo, ma potrebbe trovare un posto in determinate costruzioni di controllo.
Rugole
17/04/2020
Sleeper Dart’s second ability doesn’t tap the creature. It can target any creature, tapped or untapped. If that creature is already untapped at the beginning of its controller’s next untap step, the effect won’t do anything.
Dove comprare
![]() | TCG Player | 16 uni.
| € 0,01 | visita il negozio |
![]() | Card Kingdom | 28 uni.
| € 0,30 | visita il negozio |
![]() | Ebay.com | visita il negozio | ||
![]() | Cardkingdom | visita il negozio | ||
![]() | Printing proxies | $ 0.75 | visita il negozio |
*Questo sito contiene link di affiliazione per i quali potremmo ricevere un compenso
Gruppo
avviso di prezzo ?
Avvisami quando arriva il prezzo
Storico dell'andamento dei prezzi

Storico dei prezzi
| Data | Prezzo minimo | Prezzo medio | Decks |
|---|---|---|---|
| 2024-09-04 | 0.01 EUR | 0.17 EUR | 0 |
| 2024-09-09 | 0.02 EUR | 0.17 EUR | 0 |
| 2024-09-16 | 0.01 EUR | 0.17 EUR | 0 |
| 2024-09-23 | 0.02 EUR | 0.17 EUR | 0 |
| 2024-09-30 | 0.01 EUR | 0.17 EUR | 0 |
| 2024-10-07 | 0.02 EUR | 0.17 EUR | 0 |
| 2024-10-14 | 0.02 EUR | 0.17 EUR | 1 |
| 2024-10-21 | 0.02 EUR | 0.18 EUR | 0 |
| 2024-10-28 | 0.02 EUR | 0.18 EUR | 0 |
| 2024-11-06 | 0.02 EUR | 0.18 EUR | 0 |
| 2024-11-11 | 0.02 EUR | 0.18 EUR | 0 |
| 2024-11-18 | 0.01 EUR | 0.18 EUR | 0 |
| 2024-11-25 | 0.02 EUR | 0.18 EUR | 1 |
| 2024-12-02 | 0.02 EUR | 0.19 EUR | 1 |
| 2024-12-09 | 0.02 EUR | 0.19 EUR | 0 |
| 2024-12-19 | 0.02 EUR | 0.19 EUR | 1 |
| 2024-12-23 | 0.02 EUR | 0.19 EUR | 1 |
| 2024-12-30 | 0.02 EUR | 0.19 EUR | 0 |
| 2025-01-01 | 0.02 EUR | 0.19 EUR | 0 |
| 2025-01-06 | 0.02 EUR | 0.19 EUR | 0 |
| 2025-01-13 | 0.02 EUR | 0.19 EUR | 0 |
| 2025-01-20 | 0.02 EUR | 0.19 EUR | 0 |
| 2025-01-27 | 0.02 EUR | 0.19 EUR | 0 |
| 2025-02-03 | 0.02 EUR | 0.19 EUR | 0 |
| 2025-02-10 | 0.02 EUR | 0.19 EUR | 0 |
| 2025-02-18 | 0.02 EUR | 0.18 EUR | 0 |
| 2025-04-27 | 0.04 EUR | 0.19 EUR | 1 |
| 2025-04-28 | 0.03 EUR | 0.18 EUR | 1 |
| 2025-05-06 | 0.04 EUR | 0.18 EUR | 0 |
| 2025-05-12 | 0.04 EUR | 0.18 EUR | 0 |
| 2025-05-19 | 0.03 EUR | 0.18 EUR | 0 |
| 2025-05-28 | 0.05 EUR | 0.19 EUR | 1 |
| 2025-06-03 | 0.04 EUR | 0.19 EUR | 0 |
| 2025-06-10 | 0.05 EUR | 0.19 EUR | 0 |
| 2025-06-17 | 0.04 EUR | 0.18 EUR | 0 |
| 2025-06-23 | 0.04 EUR | 0.18 EUR | 0 |
| 2025-07-01 | 0.04 EUR | 0.18 EUR | 0 |
| 2025-07-08 | 0.03 EUR | 0.17 EUR | 2 |
| 2025-07-15 | 0.03 EUR | 0.18 EUR | 0 |
| 2025-07-22 | 0.01 EUR | 0.17 EUR | 0 |
| 2025-07-29 | 0.01 EUR | 0.17 EUR | 0 |
| 2025-08-05 | 0.01 EUR | 0.17 EUR | 0 |
| 2025-08-12 | 0.01 EUR | 0.16 EUR | 0 |
| 2025-08-18 | 0.01 EUR | 0.16 EUR | 0 |
| 2025-08-25 | 0.01 EUR | 0.16 EUR | 0 |
| 2025-09-02 | 0.01 EUR | 0.16 EUR | 0 |
| 2025-09-09 | 0.01 EUR | 0.16 EUR | 0 |
| 2025-09-15 | 0.01 EUR | 0.16 EUR | 0 |
| 2025-09-23 | 0.11 EUR | 0.21 EUR | 0 |
| 2025-09-29 | 0.31 EUR | 0.31 EUR | 0 |
| 2025-10-06 | 0.31 EUR | 0.31 EUR | 0 |
| 2025-10-13 | 0.32 EUR | 0.32 EUR | 0 |
| 2025-10-20 | 0.32 EUR | 0.32 EUR | 0 |
| 2025-10-27 | 0.32 EUR | 0.32 EUR | 0 |
| 2025-11-03 | 0.31 EUR | 0.31 EUR | 0 |
| 2025-11-10 | 0.31 EUR | 0.31 EUR | 0 |
| 2025-11-18 | 0.31 EUR | 0.31 EUR | 0 |
| 2025-11-24 | 0.31 EUR | 0.31 EUR | 0 |
| 2025-12-03 | 0.31 EUR | 0.31 EUR | 0 |
| 2025-12-08 | 0.32 EUR | 0.32 EUR | 0 |
| 2025-12-15 | 0.32 EUR | 0.32 EUR | 0 |
| 2025-12-22 | 0.32 EUR | 0.32 EUR | 0 |
| 2025-12-29 | 0.32 EUR | 0.32 EUR | 0 |
| 2026-01-01 | 0.32 EUR | 0.32 EUR | 0 |
| 2026-01-05 | 0.32 EUR | 0.32 EUR | 0 |
| 2026-01-13 | 0.32 EUR | 0.32 EUR | 0 |
| 2026-01-20 | 0.31 EUR | 0.31 EUR | 0 |
| 2026-01-26 | 0.31 EUR | 0.31 EUR | 1 |
| 2026-02-02 | 0.31 EUR | 0.31 EUR | 0 |
| 2026-02-09 | 0.31 EUR | 0.31 EUR | 0 |
| 2026-02-16 | 0.31 EUR | 0.31 EUR | 0 |
| 2026-02-23 | 0.30 EUR | 0.30 EUR | 0 |
| 2026-03-02 | 0.30 EUR | 0.30 EUR | 0 |
| 2026-03-10 | 0.31 EUR | 0.31 EUR | 0 |
| 2026-03-16 | 0.31 EUR | 0.31 EUR | 0 |
| 2026-04-02 | 0.31 EUR | 0.31 EUR | 0 |
| 2026-04-07 | 0.30 EUR | 0.30 EUR | 0 |
| 2026-04-14 | 0.29 EUR | 0.29 EUR | 0 |
| 2026-04-23 | 0.29 EUR | 0.29 EUR | 1 |
| 2026-04-30 | 0.29 EUR | 0.29 EUR | 0 |
| 2026-05-05 | 0.29 EUR | 0.29 EUR | 0 |
| 2026-05-14 | 0.29 EUR | 0.29 EUR | 0 |
| 2026-05-20 | 0.29 EUR | 0.29 EUR | 0 |
| 2026-05-25 | 0.29 EUR | 0.29 EUR | 0 |
| 2026-06-01 | 0.30 EUR | 0.30 EUR | 0 |
| 2026-06-08 | 0.30 EUR | 0.30 EUR | 0 |
| 2026-06-15 | 0.30 EUR | 0.30 EUR | 0 |
| 2026-06-23 | 0.30 EUR | 0.30 EUR | 0 |
| 2026-06-29 | 0.30 EUR | 0.30 EUR | 0 |
| 2026-07-06 | 0.28 EUR | 0.29 EUR | 0 |
| 2026-07-13 | 0.21 EUR | 0.26 EUR | 0 |
| 2026-07-20 | 0.20 EUR | 0.25 EUR | 0 |
| 2026-07-27 | 0.04 EUR | 0.17 EUR | 0 |
| 2026-08-03 | 0.01 EUR | 0.15 EUR | 0 |
| 2026-08-10 | 0.01 EUR | 0.15 EUR | 0 |
| 2026-08-17 | 0.01 EUR | 0.16 EUR | 0 |
| 2026-08-24 | 0.01 EUR | 0.16 EUR | 0 |
| 2026-09-01 | 0.01 EUR | 0.16 EUR | 0 |
Domande frequenti su Dardo Tranquillante
Che tipo di carta è Dardo Tranquillante?
Dardo Tranquillante è Artefatto carta inserita Magic: the Gathering MTG.
Qual è l'effetto della carta Dardo Tranquillante?
Quando il Dardo Tranquillante entra nel campo di battaglia, pesca una carta. {T}, Sacrifica il Dardo Tranquillante: Una creatura bersaglio non STAPpa durante il prossimo STAP del suo controllore.
Qual è il prezzo della carta Dardo Tranquillante?
Dardo Tranquillante attualmente inizia alle € 0,01. Visualizza i prezzi in tempo reale di più venditori nella sezione Dove acquistare sopra.
Qual è il set originale della carta Dardo Tranquillante?
Dardo Tranquillante è stato rilasciato per la prima volta nel set Ikoria: Lair of Behemoths, illustrato da Sidharth Chaturvedi.
Qual è la legalità della carta Dardo Tranquillante?
La legalità dipende dal formato del torneo: Dardo Tranquillante può essere legale in alcuni formati e vietato o limitato in altri. Consulta la ripartizione completa per formato nella sezione Legalità sopra.
Quali carte sono simili a Dardo Tranquillante?
Carte simili a Dardo Tranquillante includere Caleidopietra, Offerta per la Fossa della Morte. Consulta l'elenco completo nella sezione Carte simili sopra.






Reazioni
0
0 Commenti
Diventa il primo a commentare